Home > Products > Valid Products > MTR

000
SAUS41 KCAR 202000
MTRGNR
METAR KGNR 201956Z AUTO 00000KT M07/M09 A3021 RMK AO1 SLP260
T10721094





000
SAUS41 KCAR 201900
MTRGNR
METAR KGNR 201856Z AUTO 00000KT M07/M09 A3021 RMK AO1 SLP257
T10671094





000
SAUS41 KCAR 201700
MTRGNR
METAR KGNR 201656Z AUTO 32003KT M07/M10 A3023 RMK AO1 SLP264
T10721100





000
SAUS41 KCAR 201600
MTRGNR
METAR KGNR 201556Z AUTO 32004KT M08/M11 A3024 RMK AO1 SLP270
T10831106





000
SAUS41 KCAR 201500
MTRGNR
METAR KGNR 201456Z AUTO 32005KT M09/M11 A3024 RMK AO1 SLP270
T10941111 51016





000
SAUS41 KCAR 201400
MTRGNR
METAR KGNR 201356Z AUTO 03004KT M12/M13 A3022 RMK AO1 SLP265
T11171133





000
SAUS41 KCAR 201300
MTRGNR
METAR KGNR 201256Z AUTO 00000KT M12/M13 A3021 RMK AO1 SLP260
T11171133





000
SAUS41 KCAR 201200
MTRGNR
METAR KGNR 201156Z AUTO 01003KT M12/M13 A3019 RMK AO1 SLP253
T11171133 11083 21117 51020





000
SAUS41 KCAR 201100
MTRGNR
METAR KGNR 201056Z AUTO 32005KT M11/M13 A3017 RMK AO1 SLP247
T11061128





000
SAUS41 KCAR 201000
MTRGNR
METAR KGNR 200956Z AUTO 34006KT M10/M12 A3015 RMK AO1 SLP239
T11001122





000
SAUS41 KCAR 200900
MTRGNR
METAR KGNR 200856Z AUTO 32006KT M11/M12 A3013 RMK AO1 SLP230
T11061122 51014





000
SAUS41 KCAR 200800
MTRGNR
METAR KGNR 200756Z AUTO 33009KT M09/M11 A3012 RMK AO1 SLP225
T10941111





000
SAUS41 KCAR 200800
MTRGNR
METAR KGNR 200756Z AUTO 33009KT M09/M11 A3012 RMK AO1 SLP225
T10941111





000
SAUS41 KCAR 200700
MTRGNR
METAR KGNR 200656Z AUTO 34007KT M09/M11 A3011 RMK AO1 SLP221
T10891106





000
SAUS41 KCAR 200600
MTRGNR
METAR KGNR 200556Z AUTO 33012KT M08/M11 A3009 RMK AO1 SLP214
T10831106 11072 21083 51017





000
SAUS41 KCAR 200500
MTRGNR
METAR KGNR 200456Z AUTO 33013KT M08/M10 A3007 RMK AO1 SLP210
T10831100 410391083





000
SAUS41 KCAR 200400
MTRGNR
METAR KGNR 200356Z AUTO 33010KT M08/M10 A3006 RMK AO1 SLP206
T10831100





000
SAUS41 KCAR 200400
MTRGNR
METAR KGNR 200356Z AUTO 33010KT M08/M10 A3006 RMK AO1 SLP206
T10831100





000
SAUS41 KCAR 200300
MTRGNR
METAR KGNR 200256Z AUTO 34013G19KT M08/M09 A3003 RMK AO1 SLP196
T10781094 53019





000
SAUS41 KCAR 200200
MTRGNR
METAR KGNR 200156Z AUTO 32011G22KT M07/M09 A3001 RMK AO1 SLP187
T10721094





000
SAUS41 KCAR 200200
MTRGNR
METAR KGNR 200156Z AUTO 32011G22KT M07/M09 A3001 RMK AO1 SLP187
T10721094





000
SAUS41 KCAR 200100
MTRGNR
METAR KGNR 200056Z AUTO 34008G17KT M07/M09 A3000 RMK AO1 SLP184
T10721089





000
SAUS41 KCAR 200000
MTRGNR
METAR KGNR 192356Z AUTO 34008G16KT M07/M09 A2997 RMK AO1 SLP176
T10721089 11039 21072 53029





000
SAUS41 KCAR 192300
MTRGNR
METAR KGNR 192256Z AUTO 34013G19KT M07/M09 A2994 RMK AO1 SLP164
T10671089





000
SAUS41 KCAR 192200
MTRGNR
METAR KGNR 192156Z AUTO 34013G19KT M06/M08 A2991 RMK AO1 SLP152
T10611083





000
SAUS41 KCAR 192100
MTRGNR
METAR KGNR 192056Z AUTO 33016G25KT M06/M08 A2988 RMK AO1 PK WND
33027/2041 SLP143 T10561078 51018





000
SAUS41 KCAR 192000
MTRGNR
METAR KGNR 191956Z AUTO 32009G20KT 270V340 M05/M08 A2988 RMK AO1
SLP140 T10501078





000
SAUS41 KCAR 192000
MTRGNR
METAR KGNR 191956Z AUTO 32009G20KT 270V340 M05/M08 A2988 RMK AO1
SLP140 T10501078





000
SAUS41 KCAR 191900
MTRGNR
METAR KGNR 191856Z AUTO 33012G19KT M04/M07 A2984 RMK AO1 SLP128
T10441072





000
SAUS41 KCAR 191758
MTRGNR
METAR KGNR 191756Z AUTO 33013G21KT M04/M07 A2983 RMK AO1 SLP123
T10391072 11039 21056 53003





000
SAUS41 KCAR 191658
MTRGNR
METAR KGNR 191656Z AUTO 33017G22KT M04/M08 A2982 RMK AO1 SLP120
T10441078





000
SAUS41 KCAR 191557
MTRGNR
METAR KGNR 191556Z AUTO 33011G19KT M05/M08 A2982 RMK AO1 SLP122
T10501078





000
SAUS41 KCAR 191457
MTRGNR
METAR KGNR 191456Z AUTO 32008G23KT 270V020 M06/M08 A2982 RMK AO1
SLP121 T10561078 51021





000
SAUS41 KCAR 191358
MTRGNR
METAR KGNR 191356Z AUTO 33013G18KT M06/M08 A2981 RMK AO1 SLP117
T10561078





000
SAUS41 KCAR 191257
MTRGNR
METAR KGNR 191256Z AUTO 33012G21KT M06/M07 A2979 RMK AO1 SLP109
T10561072





000
SAUS41 KCAR 191157
MTRGNR
METAR KGNR 191156Z AUTO 34016G23KT M06/M07 A2975 RMK AO1 SLP098
70007 T10561072 11044 21056 53019





000
SAUS41 KCAR 191058
MTRGNR
METAR KGNR 191056Z AUTO 33012G25KT M06/M07 A2972 RMK AO1 PK WND
32033/1004 PRESRR SLP088 T10561067





000
SAUS41 KCAR 190957
MTRGNR
METAR KGNR 190956Z AUTO 32013G28KT M05/M07 A2968 RMK AO1 PK WND
32028/0953 SLP073 T10501067





000
SAUS41 KCAR 190957
MTRGNR
METAR KGNR 190956Z AUTO 32013G28KT M05/M07 A2968 RMK AO1 PK WND
32028/0953 SLP073 T10501067





000
SAUS41 KCAR 190858
MTRGNR
METAR KGNR 190856Z AUTO VRB06G20KT M05/M07 A2970 RMK AO1 SLP079
T10501067 53008





000
SAUS41 KCAR 190757
MTRGNR
METAR KGNR 190756Z AUTO 33009G17KT M04/M07 A2970 RMK AO1 PK WND
33026/0657 SLP079 T10441067





000
SAUS41 KCAR 190658
MTRGNR
METAR KGNR 190656Z AUTO 31013G26KT M05/M07 A2966 RMK AO1 PK WND
33026/0648 SLP065 T10501067





000
SAUS41 KCAR 190557
MTRGNR
METAR KGNR 190556Z AUTO 31008G16KT 260V340 M04/M06 A2967 RMK AO1
SLP068 T10441061 11039 21044 50004





000
SAUS41 KCAR 190458
MTRGNR
METAR KGNR 190456Z AUTO 32012G20KT M04/M06 A2968 RMK AO1 SLP070
T10391056 400001044





000
SAUS41 KCAR 190357
MTRGNR
METAR KGNR 190356Z AUTO 32010G19KT 270V340 M04/M05 A2966 RMK AO1
SLP065 T10391050





000
SAUS41 KCAR 190357
MTRGNR
METAR KGNR 190356Z AUTO 32010G19KT 270V340 M04/M05 A2966 RMK AO1
SLP065 T10391050





000
SAUS41 KCAR 190258
MTRGNR
METAR KGNR 190256Z AUTO 33015G23KT M04/M06 A2966 RMK AO1 PK WND
32026/0220 SLP064 T10391061 53011





000
SAUS41 KCAR 190157
MTRGNR
METAR KGNR 190156Z AUTO 34018G28KT M04/M07 A2964 RMK AO1 PK WND
33028/0152 SLP056 T10391067





000
SAUS41 KCAR 190157
MTRGNR
METAR KGNR 190156Z AUTO 34018G28KT M04/M07 A2964 RMK AO1 PK WND
33028/0152 SLP056 T10391067





000
SAUS41 KCAR 190057
MTRGNR
METAR KGNR 190056Z AUTO 33014G24KT M04/M06 A2963 RMK AO1 PK WND
32028/0027 SLP055 T10391061





000
SAUS41 KCAR 182359 COR
MTRGNR
METAR KGNR 182356Z AUTO 32018G25KT M04/M06 A2962 RMK AO1 PK WND
33027/2343 SLP052 60002 T10391056 11028 21039 51010





000
SAUS41 KCAR 182258
MTRGNR
METAR KGNR 182256Z AUTO 32010G20KT 280V360 M03/M05 A2962 RMK AO1
SLP050 T10331050





000
SAUS41 KCAR 182157
MTRGNR
METAR KGNR 182156Z AUTO 32012G22KT M03/M06 A2961 RMK AO1 PK WND
32031/2111 SLP047 T10331056





000
SAUS41 KCAR 182057
MTRGNR
METAR KGNR 182056Z AUTO 32017G31KT M04/M06 A2959 RMK AO1 PK WND
32031/2053 SLP041 60002 T10391061 53014





000
SAUS41 KCAR 181958
MTRGNR
METAR KGNR 181956Z AUTO 32014G27KT M03/M06 A2958 RMK AO1 PK WND
32028/1920 SLP035 P0001 T10331056





000
SAUS41 KCAR 181857
MTRGNR
METAR KGNR 181856Z AUTO 32016G29KT M03/M05 A2956 RMK AO1 PK WND
33032/1813 SLP029 P0001 T10331050





000
SAUS41 KCAR 181758
MTRGNR
METAR KGNR 181756Z AUTO 33022G30KT M03/M04 A2955 RMK AO1 PK WND
32030/1755 SLP025 P0001 60005 T10281044 11022 21028 56008





000
SAUS41 KCAR 181657
MTRGNR
METAR KGNR 181656Z AUTO 32013G21KT M03/M04 A2956 RMK AO1 SLP027
T10281039





000
SAUS41 KCAR 181558
MTRGNR
METAR KGNR 181556Z AUTO 32013G21KT M02/M03 A2956 RMK AO1 PK WND
33027/1532 SLP028 P0001 T10221033





000
SAUS41 KCAR 181457
MTRGNR
METAR KGNR 181456Z AUTO 34015G25KT M03/M04 A2958 RMK AO1 PK WND
33027/1358 SLP033 60003 T10281044 53008





000
SAUS41 KCAR 181358
MTRGNR
METAR KGNR 181356Z AUTO 34016G25KT M02/M04 A2956 RMK AO1 PK WND
32026/1335 SLP029 P0001 T10221039





000
SAUS41 KCAR 181358
MTRGNR
METAR KGNR 181356Z AUTO 34016G25KT M02/M04 A2956 RMK AO1 PK WND
32026/1335 SLP029 P0001 T10221039





000
SAUS41 KCAR 181257
MTRGNR
METAR KGNR 181256Z AUTO 34013G21KT M02/M04 A2956 RMK AO1 SLP025
P0002 T10221039





000
SAUS41 KCAR 181257
MTRGNR
METAR KGNR 181256Z AUTO 34013G21KT M02/M04 A2956 RMK AO1 SLP025
P0002 T10221039





000
SAUS41 KCAR 181157
MTRGNR
METAR KGNR 181156Z AUTO 33014KT M02/M04 A2955 RMK AO1 SLP024 P0001
60014 70079 T10221039 11006 21022 53006 $





000
SAUS41 KCAR 181157
MTRGNR
METAR KGNR 181156Z AUTO 33014KT M02/M04 A2955 RMK AO1 SLP024 P0001
60014 70079 T10221039 11006 21022 53006 $





000
SAUS41 KCAR 181058
MTRGNR
METAR KGNR 181056Z AUTO 34012G19KT M02/M03 A2954 RMK AO1 SLP022
P0002 T10221033 $





000
SAUS41 KCAR 181058
MTRGNR
METAR KGNR 181056Z AUTO 34012G19KT M02/M03 A2954 RMK AO1 SLP022
P0002 T10221033 $





000
SAUS41 KCAR 180957
MTRGNR
METAR KGNR 180956Z AUTO 33014G19KT M02/M03 A2953 RMK AO1 SLP018
P0003 T10221033 $





000
SAUS41 KCAR 180859
MTRGNR
METAR KGNR 180856Z AUTO 33014G20KT M02/M03 A2953 RMK AO1 SLP017
P0002 60008 T10171028 58007 $





000
SAUS41 KCAR 180859
MTRGNR
METAR KGNR 180856Z AUTO 33014G20KT M02/M03 A2953 RMK AO1 SLP017
P0002 60008 T10171028 58007 $





000
SAUS41 KCAR 180757
MTRGNR
METAR KGNR 180756Z AUTO 34008G16KT M01/M02 A2955 RMK AO1 SLP021
P0003 T10111022





000
SAUS41 KCAR 180757
MTRGNR
METAR KGNR 180756Z AUTO 34008G16KT M01/M02 A2955 RMK AO1 SLP021
P0003 T10111022





000
SAUS41 KCAR 180658
MTRGNR
METAR KGNR 180656Z AUTO 34011KT M01/M02 A2956 RMK AO1 SLP025 P0003
T10061017





000
SAUS41 KCAR 180557
MTRGNR
METAR KGNR 180556Z AUTO 34010KT M01/M02 A2955 RMK AO1 SLP024 P0002
60009 T10061017 10006 21006 56017





000
SAUS41 KCAR 180457
MTRGNR
METAR KGNR 180456Z AUTO 33008KT 00/M01 A2957 RMK AO1 SLP029 P0001
T00001011 400111011





000
SAUS41 KCAR 180357
MTRGNR
METAR KGNR 180356Z AUTO 00000KT 00/M01 A2958 RMK AO1 SLP034 P0001
T00001006





000
SAUS41 KCAR 180258
MTRGNR
METAR KGNR 180256Z AUTO 01004KT 00/M01 A2961 RMK AO1 SLP041 P0001
60005 T00001011 58019





000
SAUS41 KCAR 180157
MTRGNR
METAR KGNR 180156Z AUTO VRB04KT 00/M01 A2963 RMK AO1 SLP049 P0001
T00001006





000
SAUS41 KCAR 180157
MTRGNR
METAR KGNR 180156Z AUTO VRB04KT 00/M01 A2963 RMK AO1 SLP049 P0001
T00001006





000
SAUS41 KCAR 180058
MTRGNR
METAR KGNR 180056Z AUTO 36003KT 01/M01 A2965 RMK AO1 SLP056 P0003
T00061006





000
SAUS41 KCAR 172357
MTRGNR
METAR KGNR 172356Z AUTO 00000KT 01/M01 A2967 RMK AO1 SLP062 P0003
60041 T00061006 10011 20000 56007





000
SAUS41 KCAR 172257
MTRGNR
METAR KGNR 172256Z AUTO 03004KT 00/M01 A2967 RMK AO1 SLP064 P0005
T00001006





000
SAUS41 KCAR 172157
MTRGNR
METAR KGNR 172156Z AUTO 03003KT 01/00 A2968 RMK AO1 SLP067 P0006
T00060000





000
SAUS41 KCAR 172157
MTRGNR
METAR KGNR 172156Z AUTO 03003KT 01/00 A2968 RMK AO1 SLP067 P0006
T00060000





000
SAUS41 KCAR 172057
MTRGNR
METAR KGNR 172056Z AUTO 04005KT 01/M01 A2969 RMK AO1 SLP070 P0008
60027 T00061006 58012





    US Dept of Commerce
    National Oceanic and Atmospheric Administration
    National Weather Service
    1325 East West Highway
    Silver Spring, MD 20910
    Page Author: NWS Internet Services Team
Disclaimer
Information Quality
Credits
Glossary
Privacy Policy
Freedom of Information Act (FOIA)
About Us
Career Opportunities